Time;durP1;ratioP1;P1;durP2;ratioP2;P2;SDS_P1;SDS_P2;PMS_P1;PMS_P2;Temp;Humidity;BMP_temperature;BMP_pressure;BME280_temperature;BME280_humidity;BME280_pressure;Samples;Min_cycle;Max_cycle;Signal;HPM_P1;HPM_P2
2023/03/11 00:00:21;;;;;;;2.60;2.22;;;;;;;6.51;58.55;98812.38;4902460;29;20453;-80
2023/03/11 00:02:50;;;;;;;1.95;1.77;;;;;;;6.35;59.90;98805.94;4891246;29;20759;-80
2023/03/11 00:05:25;;;;;;;3.15;1.40;;;;;;;6.29;61.38;98821.31;4893863;29;20590;-81
2023/03/11 00:07:53;;;;;;;3.70;1.63;;;;;;;6.29;60.50;98829.25;4904847;29;20047;-81
2023/03/11 00:10:41;;;;;;;3.08;1.60;;;;;;;6.15;61.04;98852.47;4920153;29;20055;-80
2023/03/11 00:13:09;;;;;;;3.35;1.80;;;;;;;6.19;60.58;98849.44;4929081;29;20048;-80
2023/03/11 00:15:37;;;;;;;3.20;1.80;;;;;;;6.16;60.76;98856.81;4920656;28;20490;-80
2023/03/11 00:18:04;;;;;;;2.53;1.70;;;;;;;6.28;56.94;98871.53;4909958;28;20465;-80
2023/03/11 00:20:34;;;;;;;3.58;1.55;;;;;;;6.32;56.81;98885.31;4937185;28;20043;-80
2023/03/11 00:23:01;;;;;;;3.08;1.30;;;;;;;6.18;57.46;98868.03;4922883;28;20116;-80
2023/03/11 00:25:30;;;;;;;1.63;1.10;;;;;;;6.10;55.35;98876.59;4952420;28;20050;-80
2023/03/11 00:27:57;;;;;;;2.03;1.00;;;;;;;6.11;55.55;98880.06;4985849;28;20039;-80
2023/03/11 00:30:24;;;;;;;2.75;1.42;;;;;;;6.05;56.78;98869.06;4969344;28;20141;-80
2023/03/11 00:32:53;;;;;;;4.30;1.35;;;;;;;6.02;55.10;98879.06;4952642;28;20106;-80
2023/03/11 00:35:22;;;;;;;1.92;1.30;;;;;;;6.04;55.84;98882.41;4980239;28;20043;-80
2023/03/11 00:37:53;;;;;;;2.08;1.27;;;;;;;5.84;53.34;98897.22;4983558;28;20061;-80
2023/03/11 00:40:20;;;;;;;6.03;1.00;;;;;;;5.86;54.08;98898.75;4986156;28;20050;-80
2023/03/11 00:42:47;;;;;;;3.40;1.05;;;;;;;5.94;54.41;98892.03;4967113;28;20054;-80
2023/03/11 00:45:14;;;;;;;2.17;1.10;;;;;;;5.93;54.83;98912.25;4979061;28;20038;-80
2023/03/11 00:47:41;;;;;;;5.60;1.75;;;;;;;5.94;55.10;98889.41;4984852;28;20057;-80
2023/03/11 00:50:14;;;;;;;3.35;1.38;;;;;;;5.84;53.31;98916.50;4993079;28;20605;-80
2023/03/11 00:52:41;;;;;;;1.70;1.17;;;;;;;5.86;53.46;98904.03;4997156;28;20510;-80
2023/03/11 00:55:09;;;;;;;4.00;0.90;;;;;;;5.82;52.33;98899.97;4981435;28;20047;-80
2023/03/11 00:57:36;;;;;;;1.77;0.90;;;;;;;5.95;52.15;98918.25;4984258;28;20049;-80
2023/03/11 01:00:03;;;;;;;3.72;0.90;;;;;;;5.77;54.11;98896.06;4968128;28;20042;-80
2023/03/11 01:02:30;;;;;;;1.58;1.10;;;;;;;5.71;52.41;98907.94;4968273;28;20141;-80
2023/03/11 01:04:57;;;;;;;3.25;0.88;;;;;;;5.72;52.21;98893.78;4979711;28;20041;-80
2023/03/11 01:07:23;;;;;;;4.13;1.20;;;;;;;5.68;52.10;98896.84;4965900;28;20121;-80
2023/03/11 01:09:50;;;;;;;1.25;0.85;;;;;;;5.68;51.75;98912.63;4961651;28;20062;-80
2023/03/11 01:12:17;;;;;;;3.58;1.00;;;;;;;5.59;52.14;98888.72;4981277;28;20042;-80
2023/03/11 01:14:44;;;;;;;1.92;1.38;;;;;;;5.54;53.41;98919.03;4966469;28;20147;-80
2023/03/11 01:17:10;;;;;;;3.72;1.20;;;;;;;5.39;53.94;98918.50;4985773;28;20046;-80
2023/03/11 01:19:37;;;;;;;3.38;1.50;;;;;;;5.34;55.20;98910.13;4977741;28;20062;-80
2023/03/11 01:22:04;;;;;;;4.90;0.98;;;;;;;5.29;54.73;98942.13;4965828;28;20084;-80
2023/03/11 01:24:33;;;;;;;4.00;1.02;;;;;;;5.32;54.27;98920.81;4965273;28;20043;-80
2023/03/11 01:27:00;;;;;;;3.95;1.30;;;;;;;5.34;53.70;98916.25;4987463;28;20101;-80
2023/03/11 01:29:26;;;;;;;4.88;1.50;;;;;;;5.29;53.59;98928.09;4955413;28;20125;-80
2023/03/11 01:31:55;;;;;;;3.25;0.90;;;;;;;5.33;54.12;98925.09;4967445;28;20042;-80
2023/03/11 01:34:21;;;;;;;4.95;1.02;;;;;;;5.35;53.13;98933.72;4957450;28;20039;-80
2023/03/11 01:36:48;;;;;;;4.32;0.88;;;;;;;5.23;53.70;98932.91;4978846;28;20565;-80
2023/03/11 01:39:15;;;;;;;1.38;0.80;;;;;;;5.13;55.26;98931.97;4978932;28;20048;-80
2023/03/11 01:41:42;;;;;;;4.45;1.50;;;;;;;5.09;55.84;98929.69;4971538;28;20047;-80
2023/03/11 01:44:12;;;;;;;3.92;1.17;;;;;;;4.99;56.40;98940.97;4967774;28;20185;-80
2023/03/11 01:47:00;;;;;;;5.82;1.58;;;;;;;4.86;56.35;98927.13;4966766;28;20046;-80
2023/03/11 01:49:31;;;;;;;7.97;1.95;;;;;;;5.19;53.36;98930.63;4963478;28;20055;-80
2023/03/11 01:52:06;;;;;;;2.70;1.10;;;;;;;4.99;53.61;98929.63;4961304;28;20245;-80
2023/03/11 01:54:38;;;;;;;6.68;1.00;;;;;;;5.02;53.99;98928.53;4957503;28;20050;-80
2023/03/11 01:57:09;;;;;;;1.15;0.90;;;;;;;4.93;55.26;98933.56;4977510;28;20038;-80
2023/03/11 01:59:39;;;;;;;3.15;1.23;;;;;;;5.00;55.52;98924.22;4963943;28;20074;-80
2023/03/11 02:02:09;;;;;;;2.92;1.10;;;;;;;4.91;55.15;98946.03;4945880;28;20129;-80
2023/03/11 02:04:36;;;;;;;6.65;1.23;;;;;;;4.87;55.32;98941.13;4962773;28;20517;-80
2023/03/11 02:07:03;;;;;;;5.00;1.30;;;;;;;4.91;55.83;98956.53;4953027;28;20042;-80
2023/03/11 02:09:30;;;;;;;2.55;1.13;;;;;;;5.08;54.32;98946.47;4945772;28;20046;-80
2023/03/11 02:11:57;;;;;;;2.47;1.15;;;;;;;5.00;53.80;98953.16;4967042;28;20113;-80
2023/03/11 02:14:24;;;;;;;7.63;1.08;;;;;;;5.09;53.84;98948.97;4935767;28;20550;-80
2023/03/11 02:16:52;;;;;;;9.20;1.20;;;;;;;5.16;53.73;98955.41;4948989;28;20502;-80
2023/03/11 02:19:26;;;;;;;3.97;1.30;;;;;;;5.12;54.47;98966.31;4949412;28;20055;-80
2023/03/11 02:21:53;;;;;;;2.72;0.70;;;;;;;5.23;54.46;98971.53;4963189;28;20078;-80
2023/03/11 02:24:32;;;;;;;4.85;1.08;;;;;;;5.14;53.88;98972.28;4966168;28;20046;-80
2023/03/11 02:26:59;;;;;;;1.70;0.85;;;;;;;5.37;52.49;98973.91;4947630;28;20132;-80
2023/03/11 02:29:28;;;;;;;6.65;1.40;;;;;;;5.25;52.61;98977.53;4982310;28;20129;-80
2023/03/11 02:31:57;;;;;;;3.85;1.00;;;;;;;5.30;51.37;98971.91;4983928;28;20050;-80
2023/03/11 02:34:28;;;;;;;5.78;1.38;;;;;;;5.20;52.65;98972.63;4980753;28;20064;-80
2023/03/11 02:36:55;;;;;;;3.50;1.13;;;;;;;5.13;53.87;98968.81;4992525;28;20088;-80
2023/03/11 02:39:29;;;;;;;1.67;0.80;;;;;;;5.13;52.52;98966.19;4976174;28;20112;-80
2023/03/11 02:41:57;;;;;;;4.05;1.00;;;;;;;5.22;53.02;98956.72;4971525;28;20171;-80
2023/03/11 02:44:24;;;;;;;13.60;1.58;;;;;;;5.16;53.47;98944.03;4945594;28;20050;-80
2023/03/11 02:46:51;;;;;;;5.15;1.58;;;;;;;5.12;54.40;98954.00;4966121;28;20053;-80
2023/03/11 02:49:19;;;;;;;4.78;1.10;;;;;;;5.14;54.98;98948.59;4955124;28;20050;-80
2023/03/11 02:51:46;;;;;;;5.20;1.38;;;;;;;5.20;54.74;98954.19;4963814;28;20868;-80
2023/03/11 02:54:12;;;;;;;5.50;0.70;;;;;;;5.19;53.05;98955.19;4972157;28;20409;-80
2023/03/11 02:56:40;;;;;;;3.22;1.20;;;;;;;5.16;54.04;98959.84;4983669;28;20050;-80
2023/03/11 02:59:07;;;;;;;3.47;0.77;;;;;;;5.14;54.69;98965.25;4971755;28;22251;-80
2023/03/11 03:01:33;;;;;;;5.15;1.02;;;;;;;5.29;54.41;98968.44;4995835;28;20045;-80
2023/03/11 03:04:00;;;;;;;4.38;1.27;;;;;;;5.22;54.22;98977.78;4992765;28;20557;-80
2023/03/11 03:06:30;;;;;;;4.70;1.00;;;;;;;5.20;54.20;98983.16;4975602;28;20105;-80
2023/03/11 03:08:57;;;;;;;1.45;1.00;;;;;;;5.15;54.76;98989.75;4972843;28;20054;-80
2023/03/11 03:11:24;;;;;;;5.57;1.50;;;;;;;5.16;55.31;99004.56;4979923;28;20079;-80
2023/03/11 03:13:50;;;;;;;6.55;1.90;;;;;;;5.18;54.67;99000.84;4956685;28;20039;-80
2023/03/11 03:16:17;;;;;;;3.80;1.40;;;;;;;5.18;54.29;99002.66;4993336;28;20832;-80
2023/03/11 03:18:44;;;;;;;5.35;1.55;;;;;;;5.17;54.68;98996.56;4988453;28;20065;-80
2023/03/11 03:21:11;;;;;;;3.22;0.80;;;;;;;5.21;54.94;99000.59;4964392;28;20062;-80
2023/03/11 03:23:37;;;;;;;4.03;1.05;;;;;;;5.12;54.99;98995.25;4983839;28;20483;-80
2023/03/11 03:26:05;;;;;;;5.35;1.10;;;;;;;5.18;54.33;99000.03;4973956;28;20049;-80
2023/03/11 03:28:35;;;;;;;3.83;1.17;;;;;;;5.13;54.01;99000.38;4977544;28;20478;-80
2023/03/11 03:31:04;;;;;;;7.20;1.35;;;;;;;5.03;55.03;99002.06;4977288;28;20081;-80
2023/03/11 03:33:31;;;;;;;4.20;1.15;;;;;;;5.10;55.15;99010.31;4967592;28;20087;-80
2023/03/11 03:35:59;;;;;;;5.85;1.23;;;;;;;5.13;54.54;99012.72;4954206;28;20546;-80
2023/03/11 03:38:29;;;;;;;4.93;1.85;;;;;;;5.11;55.34;99012.81;4988989;28;20468;-80
2023/03/11 03:40:56;;;;;;;5.55;1.20;;;;;;;5.17;54.67;99015.00;4988716;28;20104;-80
2023/03/11 03:43:23;;;;;;;4.97;1.48;;;;;;;5.08;54.90;99017.50;4984102;28;20397;-80
2023/03/11 03:45:57;;;;;;;6.93;2.25;;;;;;;4.97;54.38;99023.63;4981605;28;20046;-80
2023/03/11 03:48:26;;;;;;;4.30;1.30;;;;;;;5.02;55.44;99023.25;4979236;28;20046;-80
2023/03/11 03:50:53;;;;;;;7.05;2.05;;;;;;;4.93;55.52;99019.53;4969878;28;20055;-80
2023/03/11 03:53:20;;;;;;;4.97;1.20;;;;;;;4.93;55.95;99033.53;4991435;28;20512;-80
2023/03/11 03:55:47;;;;;;;1.83;0.82;;;;;;;4.93;56.21;99033.53;4976731;28;20069;-80
2023/03/11 03:58:14;;;;;;;5.82;1.20;;;;;;;4.94;56.48;99039.66;4995986;28;20061;-80
2023/03/11 04:00:41;;;;;;;5.03;1.15;;;;;;;4.99;55.82;99035.69;4982571;28;20122;-80
2023/03/11 04:03:08;;;;;;;3.97;0.95;;;;;;;4.97;55.26;99040.22;5002728;28;20093;-80
2023/03/11 04:05:48;;;;;;;5.88;1.27;;;;;;;4.91;55.88;99030.19;4987159;28;20107;-80
2023/03/11 04:08:15;;;;;;;4.40;1.13;;;;;;;4.89;55.78;99031.28;4960258;28;21549;-80
2023/03/11 04:10:42;;;;;;;10.75;1.20;;;;;;;4.91;55.22;99040.72;4968375;28;20070;-80
2023/03/11 04:13:09;;;;;;;5.45;1.35;;;;;;;4.86;55.90;99044.66;4982691;28;20404;-80
2023/03/11 04:15:39;;;;;;;4.53;1.25;;;;;;;4.81;55.52;99045.03;4974809;28;20050;-80
2023/03/11 04:18:06;;;;;;;8.68;1.60;;;;;;;4.85;55.76;99048.25;4972456;28;20580;-80
2023/03/11 04:20:33;;;;;;;5.38;1.67;;;;;;;4.82;55.00;99051.94;4984293;28;20078;-80
2023/03/11 04:23:00;;;;;;;3.25;1.17;;;;;;;4.72;55.93;99053.59;4967904;28;20374;-80
2023/03/11 04:25:26;;;;;;;1.40;1.00;;;;;;;4.65;55.94;99055.03;4965410;28;20062;-80
2023/03/11 04:27:53;;;;;;;4.15;1.10;;;;;;;4.65;56.12;99053.22;4969885;28;20050;-80
2023/03/11 04:30:21;;;;;;;12.70;1.10;;;;;;;4.62;56.35;99050.00;4939698;28;20114;-80
2023/03/11 04:32:52;;;;;;;2.90;1.40;;;;;;;4.49;57.53;99050.09;4966753;28;20049;-80
2023/03/11 04:35:19;;;;;;;2.80;1.05;;;;;;;4.46;58.21;99066.94;4987075;28;20086;-80
2023/03/11 04:37:46;;;;;;;7.10;1.80;;;;;;;4.45;58.48;99060.03;4971040;28;20049;-80
2023/03/11 04:40:13;;;;;;;3.30;1.40;;;;;;;4.46;57.19;99064.31;4955463;28;20042;-80
2023/03/11 04:42:40;;;;;;;4.97;1.27;;;;;;;4.46;57.72;99066.94;4979934;28;20118;-80
2023/03/11 04:45:09;;;;;;;3.80;1.27;;;;;;;4.35;57.45;99074.78;4998220;28;20108;-80
2023/03/11 04:47:36;;;;;;;7.20;1.73;;;;;;;4.23;58.10;99081.00;4964750;28;20509;-80
2023/03/11 04:50:04;;;;;;;7.35;1.42;;;;;;;4.29;57.74;99081.34;4969198;28;20038;-80
2023/03/11 04:52:31;;;;;;;6.80;1.67;;;;;;;4.29;57.85;99080.50;4947391;28;20105;-80
2023/03/11 04:54:58;;;;;;;4.38;1.38;;;;;;;4.33;57.33;99074.91;4967420;28;20413;-80
2023/03/11 04:57:25;;;;;;;3.75;1.20;;;;;;;4.38;57.44;99063.25;4980831;28;20113;-80
2023/03/11 04:59:52;;;;;;;3.33;1.23;;;;;;;4.32;58.13;99075.03;4981628;28;20056;-80
2023/03/11 05:02:18;;;;;;;3.20;1.17;;;;;;;4.42;57.46;99065.50;4931324;28;20534;-80
2023/03/11 05:04:52;;;;;;;6.18;1.92;;;;;;;4.46;57.26;99066.13;4988226;28;20051;-80
2023/03/11 05:07:19;;;;;;;7.07;1.58;;;;;;;4.47;57.64;99068.63;4988553;28;20408;-80
2023/03/11 05:09:46;;;;;;;8.00;1.55;;;;;;;4.48;57.30;99077.38;5000528;28;20047;-80
2023/03/11 05:12:13;;;;;;;3.47;1.20;;;;;;;4.54;57.38;99082.16;4967520;28;20059;-80
2023/03/11 05:14:44;;;;;;;6.57;1.50;;;;;;;4.64;56.70;99087.56;4969637;28;20450;-80
2023/03/11 05:17:12;;;;;;;10.50;2.47;;;;;;;4.61;56.89;99093.06;4953338;28;20068;-80
2023/03/11 05:19:40;;;;;;;6.57;1.38;;;;;;;4.57;56.88;99093.25;4968236;28;20045;-80
2023/03/11 05:22:14;;;;;;;5.10;1.65;;;;;;;4.54;56.75;99088.22;4967515;28;20053;-80
2023/03/11 05:24:42;;;;;;;3.78;1.38;;;;;;;4.46;57.84;99098.50;4982280;28;20079;-80
2023/03/11 05:27:08;;;;;;;5.10;1.65;;;;;;;4.44;57.66;99100.41;4967268;28;20379;-80
2023/03/11 05:29:37;;;;;;;11.68;1.88;;;;;;;4.47;57.65;99100.16;4954596;28;20126;-80
2023/03/11 05:32:06;;;;;;;4.45;1.20;;;;;;;4.41;57.28;99108.53;4970830;28;20053;-80
2023/03/11 05:34:33;;;;;;;5.47;1.20;;;;;;;4.38;57.90;99119.25;4990085;28;20039;-80
2023/03/11 05:37:00;;;;;;;3.60;1.30;;;;;;;4.38;57.46;99119.25;4986967;28;20058;-80
2023/03/11 05:39:29;;;;;;;10.93;1.63;;;;;;;4.33;57.54;99111.72;4963951;28;20042;-80
2023/03/11 05:41:56;;;;;;;9.65;2.55;;;;;;;4.40;57.76;99108.63;4973909;28;20049;-80
2023/03/11 05:44:24;;;;;;;8.18;2.13;;;;;;;4.38;57.98;99098.25;4984524;28;20065;-80
2023/03/11 05:46:51;;;;;;;3.75;1.45;;;;;;;4.28;58.13;99108.59;4984462;28;20054;-80
2023/03/11 05:49:20;;;;;;;4.93;1.60;;;;;;;4.29;58.10;99110.25;4969638;28;20143;-80
2023/03/11 05:51:49;;;;;;;5.95;1.42;;;;;;;4.26;57.87;99117.53;4983246;28;20059;-80
2023/03/11 05:54:16;;;;;;;4.90;1.45;;;;;;;4.21;57.96;99109.16;4985710;28;20124;-80
2023/03/11 05:56:46;;;;;;;5.05;1.40;;;;;;;4.24;58.48;99114.19;4940430;28;20496;-80
2023/03/11 05:59:15;;;;;;;3.85;1.45;;;;;;;4.24;58.02;99120.28;4989206;28;20046;-80
2023/03/11 06:01:44;;;;;;;9.27;2.10;;;;;;;4.18;57.73;99123.38;4967962;28;20121;-80
2023/03/11 06:04:12;;;;;;;12.07;1.75;;;;;;;4.04;58.48;99124.34;4970715;28;20050;-80
2023/03/11 06:06:42;;;;;;;7.70;1.55;;;;;;;4.12;58.56;99122.03;4983210;28;20046;-80
2023/03/11 06:09:12;;;;;;;8.82;1.90;;;;;;;4.03;58.75;99127.13;4976804;28;20135;-80
2023/03/11 06:11:39;;;;;;;12.68;1.60;;;;;;;4.00;59.45;99116.84;4965781;28;20897;-80
2023/03/11 06:14:06;;;;;;;8.45;1.90;;;;;;;4.05;59.35;99123.44;4962345;28;20039;-80
2023/03/11 06:16:32;;;;;;;6.57;1.42;;;;;;;4.02;58.93;99133.28;4987875;28;20241;-80
2023/03/11 06:19:02;;;;;;;4.68;1.27;;;;;;;4.05;58.67;99126.06;4974894;28;20047;-80
2023/03/11 06:21:33;;;;;;;8.77;1.25;;;;;;;4.07;59.08;99124.16;4971274;28;20077;-80
2023/03/11 06:24:00;;;;;;;8.23;1.50;;;;;;;4.09;58.67;99122.22;4990239;28;20501;-80
2023/03/11 06:26:28;;;;;;;10.43;1.83;;;;;;;4.14;58.78;99124.53;4986388;28;20049;-80
2023/03/11 06:28:55;;;;;;;5.57;2.20;;;;;;;4.11;58.23;99127.38;4995672;28;20437;-80
2023/03/11 06:31:24;;;;;;;5.38;1.50;;;;;;;4.12;58.29;99124.66;4990429;28;20052;-80
2023/03/11 06:33:54;;;;;;;10.73;1.40;;;;;;;4.21;58.65;99130.19;4963139;28;20034;-80
2023/03/11 06:36:21;;;;;;;4.97;1.58;;;;;;;4.29;58.58;99130.44;4973382;28;20372;-80
2023/03/11 06:38:53;;;;;;;5.25;1.38;;;;;;;4.30;58.15;99135.59;4952201;28;20053;-80
2023/03/11 06:41:22;;;;;;;6.28;1.60;;;;;;;4.44;58.26;99144.25;4980085;28;20050;-81
2023/03/11 06:43:49;;;;;;;3.92;1.17;;;;;;;4.52;57.77;99155.88;4976426;28;20439;-80
2023/03/11 06:46:20;;;;;;;14.15;1.98;;;;;;;4.51;57.76;99163.88;4990471;28;20057;-81
2023/03/11 06:48:52;;;;;;;7.32;2.28;;;;;;;4.53;57.47;99170.72;4969183;28;20057;-81
2023/03/11 06:51:21;;;;;;;11.82;2.10;;;;;;;4.55;57.83;99168.81;4976565;28;20116;-80
2023/03/11 06:53:50;;;;;;;8.43;2.17;;;;;;;4.59;57.82;99174.66;4974424;28;20057;-81
2023/03/11 06:56:20;;;;;;;7.97;2.60;;;;;;;4.68;58.09;99181.00;4987080;28;20104;-81
2023/03/11 06:58:52;;;;;;;6.63;2.30;;;;;;;4.74;57.94;99189.31;4968169;28;20070;-81
2023/03/11 07:01:21;;;;;;;14.60;3.50;;;;;;;4.70;56.98;99193.09;4972072;28;20426;-80
2023/03/11 07:03:49;;;;;;;10.63;2.80;;;;;;;4.75;57.69;99198.03;4974645;28;21077;-81
2023/03/11 07:06:19;;;;;;;7.85;2.70;;;;;;;4.73;57.28;99203.41;4968919;28;20565;-81
2023/03/11 07:08:47;;;;;;;8.15;3.15;;;;;;;4.74;57.66;99205.06;4967435;28;20517;-80
2023/03/11 07:11:17;;;;;;;9.60;3.00;;;;;;;4.82;57.45;99206.31;4952978;28;20050;-80
2023/03/11 07:13:46;;;;;;;7.93;2.50;;;;;;;4.81;57.50;99216.00;4957308;28;20432;-80
2023/03/11 07:16:15;;;;;;;4.25;1.45;;;;;;;4.85;57.13;99213.97;4963515;28;20054;-80
2023/03/11 07:18:43;;;;;;;11.10;1.75;;;;;;;4.92;57.10;99212.56;5001485;28;20046;-80
2023/03/11 07:21:13;;;;;;;6.68;1.67;;;;;;;4.79;57.32;99215.25;4989418;28;20058;-80
2023/03/11 07:23:39;;;;;;;4.72;2.22;;;;;;;4.86;57.47;99211.22;4991659;28;20050;-80
2023/03/11 07:26:11;;;;;;;8.55;1.92;;;;;;;4.82;57.70;99219.47;4980436;28;20042;-81
2023/03/11 07:28:38;;;;;;;8.93;2.45;;;;;;;4.82;57.48;99222.91;4967695;28;20043;-79
2023/03/11 07:31:13;;;;;;;8.27;3.20;;;;;;;4.76;57.74;99223.38;4990203;28;20504;-79
2023/03/11 07:33:40;;;;;;;7.45;2.35;;;;;;;4.86;57.20;99226.16;4977142;28;20050;-79
2023/03/11 07:36:15;;;;;;;8.30;2.13;;;;;;;4.78;57.29;99234.59;4985645;28;20047;-79
2023/03/11 07:38:42;;;;;;;9.38;2.60;;;;;;;4.92;57.53;99236.22;4984936;28;20042;-79
2023/03/11 07:41:10;;;;;;;6.57;1.77;;;;;;;4.87;57.07;99233.09;4980804;28;20485;-79
2023/03/11 07:43:38;;;;;;;6.13;1.50;;;;;;;4.95;57.16;99242.09;4989783;28;20531;-79
2023/03/11 07:46:11;;;;;;;11.52;1.88;;;;;;;4.87;55.53;99246.25;4984249;28;20035;-79
2023/03/11 07:48:38;;;;;;;5.93;1.80;;;;;;;4.87;56.83;99243.63;4982436;28;20652;-79
2023/03/11 07:51:22;;;;;;;6.53;1.70;;;;;;;5.02;57.04;99253.00;4982188;28;20055;-79
2023/03/11 07:53:51;;;;;;;5.63;1.75;;;;;;;5.16;56.87;99257.22;4964458;28;20118;-79
2023/03/11 07:56:18;;;;;;;7.72;1.88;;;;;;;5.25;56.00;99260.97;4993543;28;20509;-79
2023/03/11 07:58:45;;;;;;;10.93;1.42;;;;;;;5.25;55.69;99263.59;4984724;28;20053;-79
2023/03/11 08:01:21;;;;;;;8.60;1.50;;;;;;;5.21;55.55;99265.59;4985724;28;20077;-79
2023/03/11 08:03:49;;;;;;;6.68;1.90;;;;;;;5.22;55.59;99264.69;4979369;28;20133;-79
2023/03/11 08:06:21;;;;;;;8.20;3.25;;;;;;;5.35;56.01;99261.94;4973437;28;20572;-79
2023/03/11 08:08:48;;;;;;;12.02;1.50;;;;;;;5.32;55.38;99267.47;4969826;28;20562;-79
2023/03/11 08:11:15;;;;;;;9.88;2.95;;;;;;;5.31;55.29;99277.13;4975817;28;20066;-79
2023/03/11 08:13:43;;;;;;;6.18;1.52;;;;;;;5.33;54.50;99280.47;4986768;28;20046;-79
2023/03/11 08:16:13;;;;;;;7.40;1.55;;;;;;;5.14;54.69;99282.81;4970695;28;20474;-79
2023/03/11 08:18:40;;;;;;;3.75;1.70;;;;;;;5.15;55.35;99287.13;4985839;28;20046;-79
2023/03/11 08:21:08;;;;;;;9.65;1.85;;;;;;;5.23;55.67;99287.41;4984098;28;20042;-79
2023/03/11 08:23:35;;;;;;;5.43;2.17;;;;;;;5.21;55.12;99294.56;4982327;28;20046;-79
2023/03/11 08:26:09;;;;;;;11.77;2.50;;;;;;;5.23;55.07;99295.28;4970358;28;20828;-79
2023/03/11 08:28:36;;;;;;;11.23;2.03;;;;;;;5.23;55.28;99303.19;4988418;28;20397;-79
2023/03/11 08:31:11;;;;;;;5.10;1.38;;;;;;;5.32;55.10;99299.88;4972389;28;20062;-80
2023/03/11 08:33:38;;;;;;;6.40;1.50;;;;;;;5.37;55.93;99310.91;4960462;28;20063;-80
2023/03/11 08:36:05;;;;;;;3.83;1.50;;;;;;;5.37;55.79;99310.06;4988210;28;20058;-80
2023/03/11 08:38:32;;;;;;;4.20;2.20;;;;;;;5.37;55.14;99310.06;4980065;28;20043;-80
2023/03/11 08:40:59;;;;;;;18.95;2.42;;;;;;;5.26;55.59;99315.28;4980896;28;20077;-80
2023/03/11 08:43:26;;;;;;;6.57;2.55;;;;;;;5.19;55.56;99315.75;4976062;28;20046;-79
2023/03/11 08:45:53;;;;;;;8.20;1.73;;;;;;;5.18;55.47;99321.13;4993093;28;20050;-80
2023/03/11 08:48:22;;;;;;;9.25;1.65;;;;;;;5.22;55.88;99320.78;4984065;28;20065;-80
2023/03/11 08:50:49;;;;;;;4.57;1.70;;;;;;;5.34;55.67;99319.03;4968499;28;20430;-80
2023/03/11 08:53:21;;;;;;;9.25;1.98;;;;;;;5.24;54.42;99325.94;4975322;28;20047;-80
2023/03/11 08:55:49;;;;;;;7.63;1.92;;;;;;;5.17;54.97;99332.63;4979780;28;20049;-80
2023/03/11 08:58:15;;;;;;;10.32;2.10;;;;;;;5.11;55.43;99330.41;4983815;28;20410;-80
2023/03/11 09:00:42;;;;;;;4.95;1.65;;;;;;;5.12;55.84;99322.41;4982898;28;20066;-80
2023/03/11 09:03:09;;;;;;;12.13;2.10;;;;;;;5.15;55.41;99330.09;4980739;28;20050;-80
2023/03/11 09:05:36;;;;;;;6.15;2.13;;;;;;;5.14;55.32;99330.19;4974164;28;20049;-80
2023/03/11 09:08:03;;;;;;;8.43;2.22;;;;;;;5.17;55.91;99337.88;4982160;28;20452;-80
2023/03/11 09:10:31;;;;;;;10.10;2.20;;;;;;;5.13;55.82;99334.63;4980935;28;20042;-80
2023/03/11 09:12:58;;;;;;;12.00;2.42;;;;;;;5.22;55.82;99331.31;4982119;28;20142;-80
2023/03/11 09:15:24;;;;;;;9.45;2.08;;;;;;;5.28;55.41;99332.63;4979487;28;20060;-80
2023/03/11 09:17:51;;;;;;;6.80;2.20;;;;;;;5.31;55.26;99336.84;4981960;28;20498;-80
2023/03/11 09:20:18;;;;;;;8.35;2.10;;;;;;;5.31;54.76;99355.25;4980797;28;20042;-80
2023/03/11 09:22:45;;;;;;;8.50;1.90;;;;;;;5.34;54.31;99342.72;4984116;28;20113;-80
2023/03/11 09:25:13;;;;;;;9.40;1.52;;;;;;;5.32;53.53;99347.25;4985395;28;20055;-80
2023/03/11 09:27:40;;;;;;;7.65;1.95;;;;;;;5.30;53.89;99345.69;4979576;28;20446;-80
2023/03/11 09:30:08;;;;;;;6.35;1.70;;;;;;;5.28;55.03;99345.81;4973984;28;20456;-80
2023/03/11 09:32:36;;;;;;;6.00;1.80;;;;;;;5.09;53.48;99348.97;4963296;28;20134;-80
2023/03/11 09:35:03;;;;;;;5.72;1.90;;;;;;;5.03;53.37;99353.84;4975491;28;20046;-80
2023/03/11 09:37:30;;;;;;;7.25;1.55;;;;;;;4.99;52.90;99354.06;4983655;28;20042;-80
2023/03/11 09:39:56;;;;;;;5.65;1.88;;;;;;;4.98;52.50;99354.16;4979673;28;21029;-80
2023/03/11 09:42:47;;;;;;;6.80;1.50;;;;;;;4.96;52.90;99354.28;4945222;28;20077;-80
2023/03/11 09:45:17;;;;;;;5.97;1.65;;;;;;;4.85;53.45;99361.28;4931680;28;20043;-80
2023/03/11 09:48:17;;;;;;;8.57;1.98;;;;;;;4.74;53.24;99364.69;4985676;28;20046;-79
2023/03/11 09:50:43;;;;;;;9.38;1.67;;;;;;;4.75;53.47;99350.56;4916430;28;20521;-80
2023/03/11 09:53:39;;;;;;;9.65;1.77;;;;;;;4.89;52.96;99349.59;4978041;28;20094;-80
2023/03/11 09:56:08;;;;;;;5.07;1.83;;;;;;;5.09;53.93;99346.34;4960118;28;20050;-79
2023/03/11 09:58:40;;;;;;;5.22;1.80;;;;;;;5.09;51.79;99343.72;4978177;28;20497;-80
2023/03/11 10:01:23;;;;;;;11.45;1.67;;;;;;;5.21;52.20;99344.56;4985182;28;20050;-80
2023/03/11 10:03:53;;;;;;;5.07;1.42;;;;;;;5.18;52.63;99345.63;4977791;28;20047;-80
2023/03/11 10:06:25;;;;;;;5.55;2.33;;;;;;;5.20;52.00;99338.47;4947839;28;20121;-80
2023/03/11 10:09:11;;;;;;;5.78;1.30;;;;;;;5.25;50.99;99343.41;4964842;28;20489;-80
2023/03/11 10:12:08;;;;;;;5.35;1.75;;;;;;;5.12;49.44;99342.63;4927197;28;20546;-80
2023/03/11 10:14:51;;;;;;;6.97;1.40;;;;;;;5.22;50.96;99344.47;4954147;28;20039;-79
2023/03/11 10:17:18;;;;;;;;;;;;;;;5.16;50.96;99342.28;4997066;28;20046;-79
2023/03/11 10:20:07;;;;;;;6.53;2.05;;;;;;;5.25;51.29;99342.56;4977715;28;19944;-80
2023/03/11 10:23:06;;;;;;;5.72;1.20;;;;;;;5.23;51.20;99334.78;4969801;28;20052;-80
2023/03/11 10:25:48;;;;;;;4.60;1.40;;;;;;;5.22;51.17;99328.69;4925094;28;20054;-80
2023/03/11 10:28:17;;;;;;;4.32;1.13;;;;;;;5.28;51.62;99332.63;4976009;28;20057;-80
2023/03/11 10:30:47;;;;;;;4.10;1.00;;;;;;;5.28;51.63;99340.53;4959533;28;20422;-80
2023/03/11 10:33:36;;;;;;;7.35;1.42;;;;;;;5.16;51.91;99341.44;4946754;28;20042;-80
2023/03/11 10:36:05;;;;;;;9.98;1.67;;;;;;;5.19;51.59;99344.72;4961623;28;20050;-80
2023/03/11 10:38:36;;;;;;;9.93;1.30;;;;;;;5.09;52.22;99354.22;4956029;28;20051;-80
2023/03/11 10:41:06;;;;;;;6.00;1.42;;;;;;;5.09;51.54;99348.09;4961027;28;20578;-80
2023/03/11 10:43:44;;;;;;;2.92;1.20;;;;;;;5.13;50.70;99339.03;4954642;28;20051;-80
2023/03/11 10:46:20;;;;;;;4.03;0.95;;;;;;;5.19;51.26;99343.84;4930186;28;20046;-80
2023/03/11 10:48:46;;;;;;;3.42;1.45;;;;;;;5.12;51.05;99337.38;4989506;28;20103;-80
2023/03/11 10:51:21;;;;;;;5.22;1.10;;;;;;;5.26;50.93;99352.13;4987904;28;20097;-81
2023/03/11 10:53:57;;;;;;;5.53;1.27;;;;;;;5.06;49.03;99343.06;4957122;28;20217;-81
2023/03/11 10:56:31;;;;;;;2.47;1.13;;;;;;;5.21;50.61;99342.78;4974038;28;20050;-80
2023/03/11 10:58:59;;;;;;;4.75;1.02;;;;;;;5.26;50.84;99341.59;4988303;28;20050;-80
2023/03/11 11:01:27;;;;;;;5.53;1.48;;;;;;;5.32;50.97;99336.72;4974337;28;20078;-81
2023/03/11 11:03:56;;;;;;;4.22;1.00;;;;;;;5.34;49.91;99341.88;4984536;28;20046;-80
2023/03/11 11:06:31;;;;;;;4.43;1.63;;;;;;;5.48;50.09;99340.84;4981026;28;20042;-81
2023/03/11 11:09:20;;;;;;;4.03;1.27;;;;;;;5.61;49.99;99346.88;4970467;28;20047;-80
2023/03/11 11:11:59;;;;;;;6.30;1.80;;;;;;;5.80;50.28;99341.88;4951040;28;20034;-80
2023/03/11 11:14:41;;;;;;;8.35;1.33;;;;;;;5.93;50.06;99339.16;4943626;28;20052;-81
2023/03/11 11:17:29;;;;;;;6.88;1.10;;;;;;;6.06;50.10;99341.69;5002021;28;20608;-80
2023/03/11 11:19:56;;;;;;;8.90;2.42;;;;;;;6.22;51.42;99338.69;4948504;28;20054;-81
2023/03/11 11:22:24;;;;;;;5.55;0.95;;;;;;;6.32;50.81;99333.56;4981186;28;20041;-80
2023/03/11 11:24:53;;;;;;;2.50;1.10;;;;;;;6.40;50.69;99325.88;4986982;28;20117;-80
2023/03/11 11:27:25;;;;;;;6.80;1.90;;;;;;;6.42;49.93;99337.13;4966252;28;20142;-80
2023/03/11 11:30:11;;;;;;;4.65;1.52;;;;;;;6.45;47.88;99335.09;4967944;28;20047;-80
2023/03/11 11:32:37;;;;;;;9.60;1.20;;;;;;;6.52;49.51;99332.81;4965395;28;20063;-80
2023/03/11 11:35:09;;;;;;;7.60;1.25;;;;;;;6.44;48.83;99335.22;4971419;28;20402;-81
2023/03/11 11:37:40;;;;;;;2.83;0.90;;;;;;;6.29;48.10;99332.81;4998013;28;20386;-81
2023/03/11 11:40:13;;;;;;;4.93;0.90;;;;;;;6.05;46.32;99342.63;4968036;28;20171;-81
2023/03/11 11:42:44;;;;;;;6.32;1.20;;;;;;;6.11;47.44;99341.31;4983355;28;20053;-81
2023/03/11 11:45:20;;;;;;;5.85;1.25;;;;;;;5.91;45.95;99340.22;4973219;28;20048;-80
2023/03/11 11:47:49;;;;;;;3.50;0.95;;;;;;;5.94;46.43;99332.94;5001829;28;20129;-81
2023/03/11 11:50:26;;;;;;;2.80;1.30;;;;;;;5.85;45.87;99326.56;4971972;28;20056;-81
2023/03/11 11:53:03;;;;;;;2.70;1.15;;;;;;;5.88;44.92;99323.69;4984974;28;20059;-81